createdAt,value
2022-08-16T00:04:34.492Z,51.91
2022-08-16T00:09:41.684Z,52.02
2022-08-16T00:14:47.932Z,52.07
2022-08-16T00:19:55.181Z,52.16
2022-08-16T00:25:04.919Z,52.25
2022-08-16T00:30:19.439Z,52.24
2022-08-16T00:35:39.614Z,52.51
2022-08-16T00:40:50.907Z,52.50
2022-08-16T00:46:33.078Z,52.59
2022-08-16T00:51:29.508Z,52.60
2022-08-16T00:56:56.196Z,52.74
2022-08-16T01:02:30.203Z,52.72
2022-08-16T01:07:49.770Z,52.89
2022-08-16T01:12:55.717Z,52.92
2022-08-16T01:18:07.359Z,53.11
2022-08-16T01:23:58.685Z,53.20
2022-08-16T01:29:06.516Z,53.32
2022-08-16T01:34:25.150Z,53.32
2022-08-16T01:39:35.545Z,53.49
2022-08-16T01:44:41.959Z,53.57
2022-08-16T01:50:43.517Z,53.73
2022-08-16T01:55:14.616Z,53.79
2022-08-16T02:00:21.899Z,53.92
2022-08-16T02:05:36.386Z,53.98
2022-08-16T02:10:41.755Z,54.07
2022-08-16T02:15:47.350Z,54.11
2022-08-16T02:20:56.031Z,54.31
2022-08-16T02:26:02.968Z,54.39
2022-08-16T02:31:10.535Z,54.35
2022-08-16T02:36:47.927Z,54.51
2022-08-16T02:41:43.835Z,54.63
2022-08-16T02:46:49.863Z,54.61
2022-08-16T02:51:59.697Z,54.75
2022-08-16T02:57:07.228Z,54.80
2022-08-16T03:02:13.879Z,54.84
2022-08-16T03:07:27.340Z,54.83
2022-08-16T03:12:36.814Z,55.04
2022-08-16T03:18:00.418Z,55.10
2022-08-16T03:23:08.598Z,55.26
2022-08-16T03:28:14.438Z,55.35
2022-08-16T03:33:23.306Z,55.49
2022-08-16T03:38:35.504Z,55.60
2022-08-16T03:43:51.832Z,55.67
2022-08-16T03:49:00.600Z,55.87
2022-08-16T03:54:12.359Z,55.80
2022-08-16T03:59:19.679Z,56.12
2022-08-16T04:04:33.525Z,56.13
2022-08-16T04:09:41.722Z,56.36
2022-08-16T04:14:48.229Z,56.62
2022-08-16T04:19:54.955Z,56.60
2022-08-16T04:25:04.499Z,56.90
2022-08-16T04:30:32.151Z,57.11
2022-08-16T04:35:41.797Z,57.30
2022-08-16T04:40:48.112Z,57.32
2022-08-16T04:46:00.680Z,57.48
2022-08-16T04:51:12.283Z,57.68
2022-08-16T04:56:26.497Z,57.90
2022-08-16T05:01:55.961Z,57.95
2022-08-16T05:06:59.000Z,57.99
2022-08-16T05:12:21.932Z,58.05
2022-08-16T05:17:28.666Z,58.02
2022-08-16T05:22:39.659Z,58.01
2022-08-16T05:27:52.136Z,57.92
2022-08-16T05:32:58.526Z,57.72
2022-08-16T05:38:04.193Z,57.56
2022-08-16T05:43:32.046Z,57.43
2022-08-16T05:48:38.064Z,57.21
2022-08-16T05:53:47.394Z,57.01
2022-08-16T05:58:55.708Z,56.99
2022-08-16T06:04:01.306Z,56.86
2022-08-16T06:09:11.795Z,56.74
2022-08-16T06:14:20.148Z,56.59
2022-08-16T06:19:26.387Z,56.42
2022-08-16T06:24:54.280Z,56.38
2022-08-16T06:30:03.141Z,56.36
2022-08-16T06:35:10.326Z,56.46
2022-08-16T06:40:17.715Z,56.32
2022-08-16T06:45:29.438Z,56.43
2022-08-16T06:50:45.757Z,56.41
2022-08-16T06:55:53.752Z,56.30
2022-08-16T07:01:00.997Z,56.05
2022-08-16T07:06:08.812Z,55.86
2022-08-16T07:11:45.997Z,55.74
2022-08-16T07:16:48.662Z,55.45
2022-08-16T07:21:59.684Z,55.16
2022-08-16T07:27:08.416Z,54.99
2022-08-16T07:32:14.875Z,54.63
2022-08-16T07:37:22.349Z,54.38
2022-08-16T07:42:54.883Z,54.22
2022-08-16T07:48:11.012Z,53.94
2022-08-16T07:53:20.123Z,53.74
2022-08-16T07:58:34.942Z,53.42
2022-08-16T08:03:51.812Z,53.24
2022-08-16T08:09:01.421Z,53.07
2022-08-16T08:14:07.304Z,52.97
2022-08-16T08:19:19.886Z,52.72
2022-08-16T08:24:32.344Z,52.55
2022-08-16T08:29:40.120Z,52.08
2022-08-16T08:34:49.510Z,51.65
2022-08-16T08:39:57.077Z,51.41
2022-08-16T08:45:04.408Z,51.42
2022-08-16T08:50:13.201Z,51.18
2022-08-16T08:55:39.417Z,50.77
2022-08-16T09:00:51.259Z,50.72
2022-08-16T09:05:59.552Z,50.57
2022-08-16T09:11:07.859Z,49.84
2022-08-16T09:17:02.309Z,49.42
2022-08-16T09:21:43.477Z,49.19
2022-08-16T09:26:52.451Z,48.74
2022-08-16T09:31:58.665Z,47.99
2022-08-16T09:37:17.857Z,47.53
2022-08-16T09:42:25.050Z,47.28
2022-08-16T09:47:56.412Z,47.14
2022-08-16T09:52:55.792Z,46.98
2022-08-16T09:58:03.866Z,46.75
2022-08-16T10:03:11.096Z,46.68
2022-08-16T10:08:26.681Z,46.58
2022-08-16T10:13:34.185Z,46.75
2022-08-16T10:19:00.794Z,46.90
2022-08-16T10:24:06.363Z,46.75
2022-08-16T10:29:12.029Z,46.59
2022-08-16T10:34:32.151Z,46.66
2022-08-16T10:39:42.226Z,46.68
2022-08-16T10:44:54.923Z,46.19
2022-08-16T10:50:01.100Z,46.04
2022-08-16T11:00:36.810Z,46.10
2022-08-16T11:05:59.643Z,46.41
2022-08-16T11:11:12.867Z,47.30
2022-08-16T11:16:26.604Z,48.15
2022-08-16T11:21:32.897Z,48.74
2022-08-16T11:26:40.475Z,49.39
2022-08-16T11:31:54.310Z,49.66
2022-08-16T11:37:01.253Z,49.68
2022-08-16T11:42:16.770Z,49.70
2022-08-16T11:47:32.977Z,49.53
2022-08-16T11:52:39.130Z,49.67
2022-08-16T11:57:57.472Z,49.75
2022-08-16T12:03:03.235Z,49.77
2022-08-16T12:08:10.262Z,49.97
2022-08-16T12:13:18.059Z,49.93
2022-08-16T12:18:26.430Z,49.95
2022-08-16T12:23:32.098Z,50.16
2022-08-16T12:28:54.626Z,50.20
2022-08-16T12:34:01.492Z,50.20
2022-08-16T12:39:07.475Z,50.45
2022-08-16T12:44:13.496Z,50.29
2022-08-16T12:49:25.986Z,50.16
2022-08-16T12:54:36.542Z,50.17
2022-08-16T12:59:43.372Z,50.15
2022-08-16T13:04:49.534Z,50.04
2022-08-16T13:09:58.709Z,49.98
2022-08-16T13:15:04.189Z,49.73
2022-08-16T13:20:12.219Z,49.61
2022-08-16T13:25:20.791Z,49.44
2022-08-16T13:30:37.093Z,49.45
2022-08-16T13:35:55.622Z,49.01
2022-08-16T13:41:08.561Z,48.56
2022-08-16T13:46:14.633Z,48.11
2022-08-16T13:51:24.302Z,47.79
2022-08-16T13:56:34.543Z,47.40
2022-08-16T14:01:43.935Z,46.95
2022-08-16T14:06:50.738Z,46.64
2022-08-16T14:11:56.289Z,46.19
2022-08-16T14:17:03.595Z,45.94
2022-08-16T14:22:13.989Z,45.94
2022-08-16T14:27:23.051Z,45.66
2022-08-16T14:32:34.390Z,45.06
2022-08-16T14:37:42.971Z,44.94
2022-08-16T14:42:49.308Z,44.63
2022-08-16T14:47:56.811Z,44.40
2022-08-16T14:53:03.669Z,44.18
2022-08-16T14:58:10.478Z,43.76
2022-08-16T15:03:25.826Z,43.37
2022-08-16T15:08:36.401Z,43.30
2022-08-16T15:13:43.157Z,43.39
2022-08-16T15:18:49.585Z,43.08
2022-08-16T15:23:55.544Z,42.90
2022-08-16T15:29:01.068Z,42.62
2022-08-16T15:34:06.568Z,42.19
2022-08-16T15:39:27.924Z,41.86
2022-08-16T15:44:52.304Z,41.40
2022-08-16T15:49:59.566Z,41.43
2022-08-16T15:55:23.794Z,41.68
2022-08-16T16:00:33.559Z,41.72
2022-08-16T16:05:39.735Z,41.83
2022-08-16T16:10:54.255Z,41.85
2022-08-16T16:16:03.249Z,41.83
2022-08-16T16:21:12.457Z,42.05
2022-08-16T16:26:26.856Z,42.04
2022-08-16T16:31:33.715Z,42.28
2022-08-16T16:36:48.270Z,42.52
2022-08-16T16:41:54.466Z,42.57
2022-08-16T16:46:59.905Z,42.73
2022-08-16T16:52:06.908Z,42.70
2022-08-16T16:57:33.712Z,42.89
2022-08-16T17:02:49.670Z,43.10
2022-08-16T17:08:00.982Z,43.29
2022-08-16T17:13:09.308Z,43.49
2022-08-16T17:19:15.670Z,43.61
2022-08-16T17:23:58.112Z,43.94
2022-08-16T17:29:11.103Z,44.31
2022-08-16T17:34:30.429Z,45.21
2022-08-16T17:39:45.376Z,45.86
2022-08-16T17:45:04.260Z,46.35
2022-08-16T17:50:11.075Z,46.68
2022-08-16T17:55:22.138Z,47.13
2022-08-16T18:00:28.309Z,47.43
2022-08-16T18:05:34.607Z,47.83
2022-08-16T18:10:40.693Z,48.28
2022-08-16T18:15:46.109Z,48.38
2022-08-16T18:21:09.524Z,48.75
2022-08-16T18:26:14.988Z,49.02
2022-08-16T18:31:20.482Z,49.21
2022-08-16T18:36:26.707Z,49.48
2022-08-16T18:41:37.475Z,49.73
2022-08-16T18:46:44.390Z,49.80
2022-08-16T18:51:51.211Z,50.03
2022-08-16T18:56:58.242Z,50.29
2022-08-16T19:02:05.643Z,50.43
2022-08-16T19:07:11.617Z,50.65
2022-08-16T19:12:17.606Z,50.99
2022-08-16T19:17:43.477Z,51.15
2022-08-16T19:23:05.569Z,51.22
2022-08-16T19:28:49.993Z,51.21
2022-08-16T19:33:38.649Z,51.26
2022-08-16T19:38:43.971Z,51.58
2022-08-16T19:43:50.208Z,51.74
2022-08-16T19:48:55.779Z,52.25
2022-08-16T19:54:01.386Z,52.42
2022-08-16T19:59:40.544Z,52.56
2022-08-16T20:04:33.378Z,52.65
2022-08-16T20:09:39.076Z,52.80
2022-08-16T20:14:45.600Z,53.16
2022-08-16T20:19:51.335Z,53.51
2022-08-16T20:24:57.315Z,53.89
2022-08-16T20:30:03.008Z,54.15
2022-08-16T20:35:12.199Z,54.50
2022-08-16T20:40:34.786Z,54.94
2022-08-16T20:45:41.898Z,55.48
2022-08-16T20:50:47.792Z,55.83
2022-08-16T20:55:53.486Z,55.98
2022-08-16T21:00:59.465Z,56.11
2022-08-16T21:06:06.044Z,56.48
2022-08-16T21:11:11.564Z,56.89
2022-08-16T21:16:19.047Z,57.30
2022-08-16T21:21:24.633Z,57.39
2022-08-16T21:26:39.178Z,57.60
2022-08-16T21:31:45.895Z,57.66
2022-08-16T21:36:51.498Z,57.62
2022-08-16T21:41:56.977Z,57.60
2022-08-16T21:47:02.554Z,57.57
2022-08-16T21:52:09.008Z,57.53
2022-08-16T21:57:15.158Z,57.92
2022-08-16T22:02:21.247Z,58.23
2022-08-16T22:07:27.082Z,58.35
2022-08-16T22:12:33.049Z,58.39
2022-08-16T22:17:39.993Z,58.70
2022-08-16T22:22:45.808Z,59.13
2022-08-16T22:27:51.307Z,59.03
2022-08-16T22:32:56.907Z,59.16
2022-08-16T22:38:55.963Z,59.30
2022-08-16T22:43:28.890Z,59.46
2022-08-16T22:48:39.261Z,59.35
2022-08-16T22:53:48.028Z,59.37
2022-08-16T22:58:53.725Z,59.67
2022-08-16T23:03:59.870Z,59.56
2022-08-16T23:09:05.449Z,59.73
2022-08-16T23:14:11.093Z,59.82
2022-08-16T23:19:17.811Z,59.93
2022-08-16T23:24:24.845Z,59.89
2022-08-16T23:29:30.314Z,59.93
2022-08-16T23:34:37.488Z,60.12
2022-08-16T23:39:44.468Z,60.17
2022-08-16T23:44:57.955Z,60.17
2022-08-16T23:50:04.485Z,60.31
2022-08-16T23:55:10.934Z,60.34
